createdAt,value
2018-06-11T00:00:45.072Z,14.65
2018-06-11T00:06:14.397Z,13.68
2018-06-11T00:11:43.903Z,11.70
2018-06-11T00:17:13.227Z,12.73
2018-06-11T00:22:42.450Z,12.28
2018-06-11T00:28:11.816Z,22.07
2018-06-11T00:33:41.264Z,56.92
2018-06-11T00:39:10.568Z,78.20
2018-06-11T00:44:39.932Z,24.47
2018-06-11T00:50:09.251Z,12.37
2018-06-11T00:56:09.794Z,9.40
2018-06-11T01:01:39.956Z,10.20
2018-06-11T01:07:09.323Z,11.22
2018-06-11T01:12:38.748Z,16.40
2018-06-11T01:18:08.005Z,10.03
2018-06-11T01:23:37.231Z,10.55
2018-06-11T01:29:06.492Z,17.07
2018-06-11T01:34:35.788Z,8.40
2018-06-11T01:40:05.118Z,7.12
2018-06-11T01:45:34.498Z,9.30
2018-06-11T01:51:03.796Z,8.90
2018-06-11T01:56:33.014Z,8.68
2018-06-11T02:02:02.207Z,8.25
2018-06-11T02:07:31.517Z,7.65
2018-06-11T02:13:00.767Z,6.92
2018-06-11T02:18:30.071Z,7.62
2018-06-11T02:23:59.258Z,9.63
2018-06-11T02:29:28.470Z,7.80
2018-06-11T02:34:57.717Z,8.35
2018-06-11T02:40:26.991Z,10.80
2018-06-11T02:45:56.210Z,7.97
2018-06-11T02:51:26.134Z,9.25
2018-06-11T02:56:55.377Z,8.63
2018-06-11T03:02:24.588Z,10.40
2018-06-11T03:07:53.890Z,7.87
2018-06-11T03:13:24.044Z,9.55
2018-06-11T03:18:53.404Z,8.43
2018-06-11T03:24:22.705Z,8.10
2018-06-11T03:29:51.990Z,8.93
2018-06-11T03:35:21.305Z,13.50
2018-06-11T03:40:50.504Z,8.38
2018-06-11T03:46:19.746Z,9.30
2018-06-11T03:51:49.014Z,10.95
2018-06-11T03:57:18.280Z,7.33
2018-06-11T04:02:47.752Z,10.63
2018-06-11T04:08:17.024Z,8.53
2018-06-11T04:13:46.434Z,7.17
2018-06-11T04:19:15.816Z,7.70
2018-06-11T04:24:45.177Z,13.35
2018-06-11T04:30:14.602Z,7.12
2018-06-11T04:35:43.987Z,10.60
2018-06-11T04:41:13.503Z,14.03
2018-06-11T04:46:42.982Z,5.92
2018-06-11T04:52:12.710Z,8.80
2018-06-11T04:57:42.033Z,6.22
2018-06-11T05:03:11.435Z,6.20
2018-06-11T05:08:40.806Z,8.65
2018-06-11T05:14:10.162Z,5.42
2018-06-11T05:19:39.517Z,6.80
2018-06-11T05:25:08.774Z,5.05
2018-06-11T05:30:38.058Z,5.80
2018-06-11T05:36:07.930Z,11.30
2018-06-11T05:41:37.582Z,6.00
2018-06-11T05:47:06.905Z,6.42
2018-06-11T05:52:36.202Z,6.15
2018-06-11T05:58:05.509Z,6.55
2018-06-11T06:03:34.728Z,6.03
2018-06-11T06:09:05.331Z,5.05
2018-06-11T06:14:34.605Z,11.33
2018-06-11T06:20:03.918Z,5.53
2018-06-11T06:25:33.263Z,5.75
2018-06-11T06:31:02.588Z,6.90
2018-06-11T06:36:31.963Z,5.97
2018-06-11T06:42:01.258Z,10.98
2018-06-11T06:47:30.698Z,5.37
2018-06-11T06:52:59.966Z,8.53
2018-06-11T06:58:29.242Z,6.15
2018-06-11T07:03:58.493Z,11.70
2018-06-11T07:09:27.801Z,7.35
2018-06-11T07:14:57.067Z,4.42
2018-06-11T07:20:26.337Z,8.05
2018-06-11T07:25:56.676Z,5.40
2018-06-11T07:31:25.949Z,5.55
2018-06-11T07:36:55.183Z,11.78
2018-06-11T07:42:24.552Z,7.45
2018-06-11T07:47:53.845Z,4.17
2018-06-11T07:53:23.159Z,7.65
2018-06-11T07:58:52.421Z,4.85
2018-06-11T08:04:21.686Z,4.53
2018-06-11T08:09:50.892Z,6.33
2018-06-11T08:15:20.257Z,4.50
2018-06-11T08:20:49.597Z,5.95
2018-06-11T08:26:19.110Z,5.08
2018-06-11T08:31:48.512Z,4.72
2018-06-11T08:37:17.950Z,7.80
2018-06-11T08:42:47.245Z,4.33
2018-06-11T08:48:16.651Z,5.00
2018-06-11T08:53:47.768Z,8.93
2018-06-11T08:59:17.257Z,10.60
2018-06-11T09:04:46.737Z,13.00
2018-06-11T09:10:16.637Z,8.50
2018-06-11T09:15:45.993Z,9.10
2018-06-11T09:21:15.345Z,4.87
2018-06-11T09:26:44.728Z,6.55
2018-06-11T09:32:14.028Z,7.92
2018-06-11T09:37:43.605Z,9.75
2018-06-11T09:43:13.052Z,8.18
2018-06-11T09:48:42.509Z,8.90
2018-06-11T09:54:11.896Z,5.65
2018-06-11T09:59:41.230Z,9.50
2018-06-11T10:05:10.558Z,11.25
2018-06-11T10:10:39.763Z,9.30
2018-06-11T10:16:09.034Z,8.60
2018-06-11T10:21:38.272Z,7.40
2018-06-11T10:27:08.632Z,10.30
2018-06-11T10:32:37.914Z,10.68
2018-06-11T10:38:07.147Z,9.70
2018-06-11T10:43:36.413Z,13.28
2018-06-11T10:49:05.664Z,13.45
2018-06-11T10:54:34.892Z,15.93
2018-06-11T11:00:04.205Z,8.28
2018-06-11T11:05:33.501Z,15.68
2018-06-11T11:11:02.799Z,19.87
2018-06-11T11:16:32.106Z,16.05
2018-06-11T11:22:01.494Z,9.30
2018-06-11T11:27:30.817Z,9.15
2018-06-11T11:33:00.072Z,15.20
2018-06-11T11:38:29.305Z,17.37
2018-06-11T11:43:58.590Z,14.18
2018-06-11T11:49:28.024Z,14.65
2018-06-11T11:54:57.261Z,9.73
2018-06-11T12:00:26.579Z,12.65
2018-06-11T12:05:55.810Z,19.10
2018-06-11T12:11:25.113Z,18.70
2018-06-11T12:16:54.157Z,15.05
2018-06-11T12:22:23.424Z,22.80
2018-06-11T12:27:52.721Z,11.33
2018-06-11T12:33:22.102Z,16.75
2018-06-11T12:38:51.498Z,21.33
2018-06-11T12:44:21.913Z,26.68
2018-06-11T12:49:51.217Z,33.75
2018-06-11T12:55:20.490Z,11.05
2018-06-11T13:00:49.856Z,25.17
2018-06-11T13:06:18.810Z,13.03
2018-06-11T13:11:48.157Z,26.20
2018-06-11T13:17:17.567Z,17.40
2018-06-11T13:22:46.882Z,16.12
2018-06-11T13:28:16.224Z,20.08
2018-06-11T13:33:46.308Z,14.60
2018-06-11T13:39:15.946Z,17.90
2018-06-11T13:44:45.502Z,26.33
2018-06-11T13:50:16.100Z,17.15
2018-06-11T13:55:46.472Z,17.37
2018-06-11T14:01:16.193Z,16.23
2018-06-11T14:06:45.795Z,22.27
2018-06-11T14:12:15.260Z,20.02
2018-06-11T14:17:44.717Z,22.60
2018-06-11T14:23:14.396Z,23.60
2018-06-11T14:28:43.935Z,34.43
2018-06-11T14:34:13.424Z,20.27
2018-06-11T14:39:42.596Z,18.70
2018-06-11T14:45:12.121Z,14.38
2018-06-11T14:50:41.652Z,15.95
2018-06-11T14:56:11.065Z,14.10
2018-06-11T15:01:40.469Z,14.33
2018-06-11T15:07:09.951Z,14.70
2018-06-11T15:12:39.407Z,16.40
2018-06-11T15:18:08.651Z,10.78
2018-06-11T15:23:49.656Z,8.93
2018-06-11T15:29:19.081Z,13.45
2018-06-11T15:34:48.373Z,11.30
2018-06-11T15:40:17.756Z,19.92
2018-06-11T15:45:47.299Z,11.53
2018-06-11T15:51:16.767Z,8.95
2018-06-11T15:56:48.888Z,13.80
2018-06-11T16:02:20.041Z,13.60
2018-06-11T16:07:49.929Z,18.37
2018-06-11T16:13:22.410Z,19.48
2018-06-11T16:18:57.278Z,24.80
2018-06-11T16:24:26.412Z,12.80
2018-06-11T16:29:55.783Z,20.30
2018-06-11T16:35:25.156Z,19.48
2018-06-11T16:40:55.729Z,23.12
2018-06-11T16:46:26.862Z,17.87
2018-06-11T16:51:57.287Z,22.65
2018-06-11T16:57:27.536Z,17.95
2018-06-11T17:02:57.203Z,21.62
2018-06-11T17:08:29.879Z,14.20
2018-06-11T17:13:59.334Z,25.82
2018-06-11T17:19:28.808Z,17.32
2018-06-11T17:24:58.206Z,16.17
2018-06-11T17:30:27.707Z,10.40
2018-06-11T17:35:58.114Z,14.03
2018-06-11T17:41:27.600Z,19.50
2018-06-11T17:47:23.733Z,21.82
2018-06-11T17:52:53.607Z,18.02
2018-06-11T17:58:25.519Z,13.48
2018-06-11T18:03:58.064Z,14.98
2018-06-11T18:09:28.609Z,17.00
2018-06-11T18:15:04.559Z,21.73
2018-06-11T18:20:48.004Z,14.98
2018-06-11T18:26:22.591Z,10.23
2018-06-11T18:31:53.756Z,15.58
2018-06-11T18:37:26.917Z,16.45
2018-06-11T18:42:57.492Z,17.52
2018-06-11T18:48:44.585Z,6.67
2018-06-11T18:54:17.419Z,10.35
2018-06-11T18:59:59.674Z,9.20
2018-06-11T19:05:30.542Z,8.50
2018-06-11T19:11:15.130Z,6.12
2018-06-11T19:16:50.447Z,10.15
2018-06-11T19:22:25.027Z,12.85
2018-06-11T19:28:01.550Z,13.68
2018-06-11T19:33:51.341Z,11.30
2018-06-11T19:39:25.013Z,15.28
2018-06-11T19:44:54.443Z,7.75
2018-06-11T19:50:24.617Z,12.73
2018-06-11T19:55:54.330Z,10.45
2018-06-11T20:01:25.646Z,9.63
2018-06-11T20:06:58.469Z,9.83
2018-06-11T20:12:37.209Z,13.75
2018-06-11T20:18:18.137Z,6.03
2018-06-11T20:23:48.521Z,8.73
2018-06-11T20:29:18.889Z,10.60
2018-06-11T20:34:48.593Z,8.50
2018-06-11T20:40:19.989Z,13.78
2018-06-11T20:45:50.222Z,6.80
2018-06-11T20:51:20.147Z,10.50
2018-06-11T20:56:50.840Z,12.03
2018-06-11T21:02:21.688Z,8.48
2018-06-11T21:07:51.652Z,10.78
2018-06-11T21:13:22.627Z,10.70
2018-06-11T21:18:52.463Z,12.20
2018-06-11T21:24:23.554Z,14.85
2018-06-11T21:30:00.021Z,11.40
2018-06-11T21:35:35.534Z,8.85
2018-06-11T21:41:04.888Z,9.37
2018-06-11T21:46:34.220Z,8.48
2018-06-11T21:52:03.720Z,11.33
2018-06-11T21:57:36.780Z,15.32
2018-06-11T22:03:06.147Z,12.43
2018-06-11T22:08:35.352Z,9.68
2018-06-11T22:14:04.642Z,15.38
2018-06-11T22:19:33.848Z,7.30
2018-06-11T22:25:03.198Z,15.00
2018-06-11T22:30:33.851Z,8.28
2018-06-11T22:36:03.155Z,8.48
2018-06-11T22:41:32.428Z,9.80
2018-06-11T22:47:01.645Z,11.68
2018-06-11T22:52:30.878Z,8.90
2018-06-11T22:58:01.090Z,7.28
2018-06-11T23:03:30.357Z,7.12
2018-06-11T23:08:59.624Z,9.90
2018-06-11T23:14:28.970Z,10.75
2018-06-11T23:19:58.237Z,8.95
2018-06-11T23:25:27.665Z,8.23
2018-06-11T23:30:56.899Z,12.75
2018-06-11T23:36:26.193Z,7.10
2018-06-11T23:53:53.295Z,11.75
2018-06-11T23:59:22.791Z,13.80
